createdAt,value
2018-06-21T00:02:13.021Z,23.57
2018-06-21T00:04:44.716Z,23.55
2018-06-21T00:07:15.687Z,23.53
2018-06-21T00:09:46.036Z,23.49
2018-06-21T00:12:16.670Z,23.42
2018-06-21T00:14:47.154Z,23.40
2018-06-21T00:17:18.565Z,23.41
2018-06-21T00:19:50.069Z,23.37
2018-06-21T00:22:20.959Z,23.34
2018-06-21T00:24:51.756Z,23.24
2018-06-21T00:27:22.324Z,23.18
2018-06-21T00:29:52.771Z,23.18
2018-06-21T00:32:23.736Z,23.18
2018-06-21T00:34:54.360Z,23.12
2018-06-21T00:37:25.300Z,23.07
2018-06-21T00:39:55.780Z,23.00
2018-06-21T00:42:27.912Z,22.97
2018-06-21T00:44:58.438Z,22.98
2018-06-21T00:47:29.014Z,22.94
2018-06-21T00:50:01.036Z,22.86
2018-06-21T00:52:32.376Z,22.89
2018-06-21T00:55:03.241Z,22.83
2018-06-21T00:57:33.945Z,22.77
2018-06-21T01:00:06.188Z,22.75
2018-06-21T01:02:36.775Z,22.73
2018-06-21T01:05:08.024Z,22.70
2018-06-21T01:07:38.942Z,22.76
2018-06-21T01:10:09.636Z,22.76
2018-06-21T01:12:41.440Z,22.80
2018-06-21T01:15:12.256Z,22.83
2018-06-21T01:17:42.822Z,22.78
2018-06-21T01:20:13.861Z,22.75
2018-06-21T01:22:44.750Z,22.75
2018-06-21T01:25:15.490Z,22.73
2018-06-21T01:27:47.505Z,22.76
2018-06-21T01:30:18.817Z,22.74
2018-06-21T01:32:49.254Z,22.76
2018-06-21T01:35:19.971Z,22.77
2018-06-21T01:37:50.687Z,22.74
2018-06-21T01:40:21.965Z,22.71
2018-06-21T01:42:52.973Z,22.72
2018-06-21T01:45:24.039Z,22.74
2018-06-21T01:47:54.472Z,22.77
2018-06-21T01:50:26.087Z,22.80
2018-06-21T01:52:58.276Z,22.82
2018-06-21T01:55:28.654Z,22.81
2018-06-21T01:57:59.517Z,22.74
2018-06-21T02:00:30.319Z,22.73
2018-06-21T02:03:01.734Z,22.71
2018-06-21T02:05:32.482Z,22.65
2018-06-21T02:08:03.757Z,22.56
2018-06-21T02:10:35.246Z,22.54
2018-06-21T02:13:07.307Z,22.58
2018-06-21T02:15:37.940Z,22.56
2018-06-21T02:18:09.078Z,22.62
2018-06-21T02:20:40.117Z,22.74
2018-06-21T02:23:10.987Z,22.78
2018-06-21T02:25:41.414Z,22.78
2018-06-21T02:28:12.220Z,22.74
2018-06-21T02:30:43.256Z,22.79
2018-06-21T02:33:13.752Z,22.85
2018-06-21T02:35:44.979Z,22.82
2018-06-21T02:38:15.456Z,22.75
2018-06-21T02:40:47.220Z,22.59
2018-06-21T02:43:18.150Z,22.52
2018-06-21T02:45:48.928Z,22.64
2018-06-21T02:48:19.644Z,22.75
2018-06-21T02:50:50.453Z,22.78
2018-06-21T02:53:21.896Z,22.74
2018-06-21T02:55:52.837Z,22.73
2018-06-21T02:58:24.415Z,22.64
2018-06-21T03:00:54.921Z,22.54
2018-06-21T03:03:25.922Z,22.59
2018-06-21T03:05:56.808Z,22.66
2018-06-21T03:08:27.283Z,22.61
2018-06-21T03:11:01.788Z,22.67
2018-06-21T03:13:32.305Z,22.69
2018-06-21T03:16:04.330Z,22.80
2018-06-21T03:18:35.289Z,22.78
2018-06-21T03:21:05.675Z,22.80
2018-06-21T03:23:36.687Z,22.87
2018-06-21T03:26:07.798Z,22.94
2018-06-21T03:28:38.755Z,22.98
2018-06-21T03:31:09.473Z,22.95
2018-06-21T03:33:41.468Z,23.02
2018-06-21T03:36:12.481Z,23.08
2018-06-21T03:38:44.650Z,23.15
2018-06-21T03:41:15.378Z,23.12
2018-06-21T03:43:47.376Z,23.03
2018-06-21T03:46:18.517Z,22.90
2018-06-21T03:48:49.246Z,22.76
2018-06-21T03:51:19.918Z,22.66
2018-06-21T03:53:51.211Z,22.58
2018-06-21T03:56:22.451Z,22.57
2018-06-21T03:58:53.312Z,22.56
2018-06-21T04:01:24.664Z,22.53
2018-06-21T04:03:55.742Z,22.50
2018-06-21T04:06:27.131Z,22.51
2018-06-21T04:08:58.243Z,22.52
2018-06-21T04:11:28.941Z,22.51
2018-06-21T04:13:59.480Z,22.52
2018-06-21T04:16:30.152Z,22.50
2018-06-21T04:19:01.933Z,22.52
2018-06-21T04:21:32.691Z,22.59
2018-06-21T04:24:03.889Z,22.61
2018-06-21T04:26:34.764Z,22.65
2018-06-21T04:29:06.656Z,22.69
2018-06-21T04:31:37.585Z,22.72
2018-06-21T04:34:08.358Z,22.73
2018-06-21T04:36:40.022Z,22.75
2018-06-21T04:39:11.338Z,22.82
2018-06-21T04:41:42.602Z,22.81
2018-06-21T04:44:14.238Z,22.81
2018-06-21T04:46:45.335Z,22.86
2018-06-21T04:49:18.612Z,22.86
2018-06-21T04:51:50.512Z,22.88
2018-06-21T04:54:21.625Z,22.87
2018-06-21T04:56:52.856Z,22.91
2018-06-21T04:59:23.616Z,22.90
2018-06-21T05:01:54.909Z,22.94
2018-06-21T05:04:25.457Z,22.99
2018-06-21T05:06:56.516Z,23.13
2018-06-21T05:09:27.004Z,23.20
2018-06-21T05:11:57.793Z,23.26
2018-06-21T05:14:29.671Z,23.30
2018-06-21T05:17:01.074Z,23.39
2018-06-21T05:19:32.351Z,23.48
2018-06-21T05:22:03.604Z,23.50
2018-06-21T05:24:34.735Z,23.55
2018-06-21T05:27:05.152Z,23.59
2018-06-21T05:29:36.153Z,23.61
2018-06-21T05:32:07.417Z,23.79
2018-06-21T05:34:38.465Z,23.99
2018-06-21T05:37:09.525Z,24.08
2018-06-21T05:39:40.392Z,24.27
2018-06-21T05:42:11.711Z,24.42
2018-06-21T05:44:42.629Z,24.59
2018-06-21T05:47:13.408Z,24.77
2018-06-21T05:49:44.051Z,24.85
2018-06-21T05:52:15.042Z,24.79
2018-06-21T05:54:49.042Z,24.74
2018-06-21T05:57:19.482Z,24.72
2018-06-21T05:59:51.503Z,24.77
2018-06-21T06:02:22.430Z,24.86
2018-06-21T06:04:53.386Z,24.90
2018-06-21T06:07:24.876Z,24.97
2018-06-21T06:09:56.055Z,24.97
2018-06-21T06:12:26.638Z,25.04
2018-06-21T06:14:58.007Z,25.09
2018-06-21T06:17:29.229Z,25.08
2018-06-21T06:20:01.842Z,25.07
2018-06-21T06:22:32.650Z,25.09
2018-06-21T06:25:04.234Z,25.18
2018-06-21T06:27:36.612Z,25.25
2018-06-21T06:30:09.005Z,25.35
2018-06-21T06:32:40.776Z,25.34
2018-06-21T06:35:12.715Z,25.50
2018-06-21T06:37:43.375Z,25.45
2018-06-21T06:40:14.106Z,25.36
2018-06-21T06:42:46.269Z,25.23
2018-06-21T06:45:17.827Z,25.31
2018-06-21T06:47:49.596Z,25.47
2018-06-21T06:50:20.536Z,25.59
2018-06-21T06:52:51.169Z,25.79
2018-06-21T06:55:22.081Z,25.92
2018-06-21T06:57:52.870Z,25.92
2018-06-21T07:00:23.849Z,25.99
2018-06-21T07:02:55.123Z,26.08
2018-06-21T07:05:26.298Z,26.18
2018-06-21T07:07:56.995Z,26.25
2018-06-21T07:10:27.992Z,26.37
2018-06-21T07:12:59.542Z,26.43
2018-06-21T07:15:30.974Z,26.56
2018-06-21T07:18:03.104Z,26.59
2018-06-21T07:20:34.492Z,26.46
2018-06-21T07:23:05.505Z,26.48
2018-06-21T07:25:37.118Z,26.59
2018-06-21T07:28:09.392Z,26.56
2018-06-21T07:30:46.193Z,26.51
2018-06-21T07:33:18.874Z,26.42
2018-06-21T07:35:51.201Z,26.55
2018-06-21T07:38:21.999Z,26.50
2018-06-21T07:40:54.197Z,26.60
2018-06-21T07:43:25.755Z,26.57
2018-06-21T07:45:57.008Z,26.59
2018-06-21T07:48:28.682Z,26.62
2018-06-21T07:51:01.230Z,26.83
2018-06-21T07:53:32.242Z,26.85
2018-06-21T07:56:04.403Z,26.85
2018-06-21T07:58:35.096Z,27.09
2018-06-21T08:01:06.269Z,27.12
2018-06-21T08:03:37.208Z,27.21
2018-06-21T08:06:08.081Z,27.23
2018-06-21T08:08:39.985Z,27.31
2018-06-21T08:11:10.962Z,27.33
2018-06-21T08:13:42.293Z,27.39
2018-06-21T08:16:13.499Z,27.34
2018-06-21T08:18:45.502Z,27.40
2018-06-21T08:21:17.453Z,27.45
2018-06-21T08:23:48.599Z,27.49
2018-06-21T08:26:19.603Z,27.49
2018-06-21T08:28:50.421Z,27.43
2018-06-21T08:31:21.534Z,27.47
2018-06-21T08:33:52.994Z,27.34
2018-06-21T08:36:23.856Z,27.35
2018-06-21T08:38:54.581Z,27.30
2018-06-21T08:41:26.782Z,27.41
2018-06-21T08:43:59.316Z,27.39
2018-06-21T08:46:33.829Z,27.39
2018-06-21T08:49:06.106Z,27.43
2018-06-21T08:51:38.293Z,27.62
2018-06-21T08:54:10.078Z,27.72
2018-06-21T08:56:41.290Z,27.66
2018-06-21T08:59:12.319Z,27.64
2018-06-21T09:01:43.297Z,27.62
2018-06-21T09:04:14.271Z,27.72
2018-06-21T09:06:45.242Z,27.68
2018-06-21T09:09:16.424Z,27.61
2018-06-21T09:11:47.884Z,27.75
2018-06-21T09:14:20.765Z,27.77
2018-06-21T09:16:52.689Z,27.74
2018-06-21T09:19:24.752Z,27.66
2018-06-21T09:21:56.010Z,27.49
2018-06-21T09:24:27.465Z,27.47
2018-06-21T09:26:59.616Z,27.49
2018-06-21T09:29:30.363Z,27.26
2018-06-21T09:32:02.323Z,27.35
2018-06-21T09:34:33.783Z,27.48
2018-06-21T09:37:05.101Z,27.53
2018-06-21T09:39:43.150Z,27.75
2018-06-21T09:42:19.940Z,27.77
2018-06-21T09:44:56.355Z,27.80
2018-06-21T09:47:32.718Z,27.78
2018-06-21T09:50:04.915Z,27.69
2018-06-21T09:52:36.134Z,27.73
2018-06-21T09:55:07.743Z,27.73
2018-06-21T09:57:39.186Z,27.74
2018-06-21T10:00:12.784Z,27.71
2018-06-21T10:02:43.593Z,27.61
2018-06-21T10:05:15.091Z,27.75
2018-06-21T10:07:46.759Z,27.83
2018-06-21T10:10:25.278Z,27.87
2018-06-21T10:12:56.792Z,27.96
2018-06-21T10:15:29.737Z,27.89
2018-06-21T10:18:06.508Z,27.76
2018-06-21T10:20:38.550Z,27.48
2018-06-21T10:23:09.902Z,27.34
2018-06-21T10:25:40.822Z,27.33
2018-06-21T10:28:12.721Z,27.21
2018-06-21T10:30:43.826Z,27.28
2018-06-21T10:33:15.053Z,27.18
2018-06-21T10:35:46.205Z,27.07
2018-06-21T10:38:17.452Z,27.05
2018-06-21T10:40:56.926Z,27.23
2018-06-21T10:43:28.573Z,27.41
2018-06-21T10:46:01.432Z,27.41
2018-06-21T10:48:36.238Z,27.37
2018-06-21T10:51:07.672Z,27.34
2018-06-21T10:53:40.305Z,27.37
2018-06-21T10:56:11.654Z,27.44
2018-06-21T10:58:43.774Z,27.50
2018-06-21T11:01:16.932Z,27.55
2018-06-21T11:03:48.458Z,27.44
2018-06-21T11:06:20.113Z,27.64
2018-06-21T11:08:51.405Z,27.58
2018-06-21T11:11:24.174Z,27.62
2018-06-21T11:13:54.576Z,27.72
2018-06-21T11:16:26.584Z,27.64
2018-06-21T11:18:58.883Z,27.45
2018-06-21T11:21:30.127Z,27.44
2018-06-21T11:24:04.453Z,27.49
2018-06-21T11:26:37.432Z,27.42
2018-06-21T11:29:08.701Z,27.24
2018-06-21T11:31:40.029Z,27.13
2018-06-21T11:34:11.745Z,27.04
2018-06-21T11:36:44.017Z,27.02
2018-06-21T11:39:15.227Z,27.06
2018-06-21T11:41:49.838Z,26.98
2018-06-21T11:44:21.427Z,26.78
2018-06-21T11:46:54.166Z,26.84
2018-06-21T11:49:26.050Z,26.72
2018-06-21T11:51:58.216Z,26.70
2018-06-21T11:54:30.773Z,26.60
2018-06-21T11:57:03.050Z,26.61
2018-06-21T11:59:34.145Z,26.48
2018-06-21T12:02:05.414Z,26.40
2018-06-21T12:04:36.875Z,26.34
2018-06-21T12:07:07.984Z,26.51
2018-06-21T12:09:38.652Z,26.67
2018-06-21T12:12:09.294Z,26.67
2018-06-21T12:14:41.877Z,26.66
2018-06-21T12:17:13.001Z,26.69
2018-06-21T12:19:45.208Z,26.67
2018-06-21T12:22:18.065Z,26.72
2018-06-21T12:24:49.441Z,26.67
2018-06-21T12:27:20.153Z,26.72
2018-06-21T12:29:53.181Z,26.88
2018-06-21T12:32:24.215Z,26.93
2018-06-21T12:34:57.019Z,26.91
2018-06-21T12:37:32.120Z,26.92
2018-06-21T12:40:06.598Z,27.11
2018-06-21T12:42:37.968Z,27.22
2018-06-21T12:45:09.987Z,27.27
2018-06-21T12:47:42.863Z,27.29
2018-06-21T12:50:14.371Z,27.29
2018-06-21T12:52:46.993Z,27.43
2018-06-21T12:55:18.080Z,27.48
2018-06-21T12:57:53.040Z,27.45
2018-06-21T13:00:25.283Z,27.45
2018-06-21T13:02:57.768Z,27.50
2018-06-21T13:05:28.655Z,27.52
2018-06-21T13:08:02.740Z,27.54
2018-06-21T13:10:44.602Z,27.67
2018-06-21T13:13:18.616Z,27.67
2018-06-21T13:15:49.779Z,27.62
2018-06-21T13:18:21.421Z,27.64
2018-06-21T13:20:52.567Z,27.68
2018-06-21T13:23:23.793Z,27.62
2018-06-21T13:25:56.272Z,27.58
2018-06-21T13:28:27.851Z,27.55
2018-06-21T13:31:01.009Z,27.55
2018-06-21T13:33:32.083Z,27.53
2018-06-21T13:36:04.348Z,27.43
2018-06-21T13:38:35.645Z,27.53
2018-06-21T13:41:06.999Z,27.60
2018-06-21T13:43:37.968Z,27.69
2018-06-21T13:46:09.514Z,27.68
2018-06-21T13:48:41.329Z,27.65
2018-06-21T13:51:12.648Z,27.62
2018-06-21T13:53:44.468Z,27.53
2018-06-21T13:56:16.588Z,27.55
2018-06-21T13:58:50.600Z,27.52
2018-06-21T14:01:21.899Z,27.41
2018-06-21T14:03:54.379Z,27.51
2018-06-21T14:06:25.797Z,27.45
2018-06-21T14:08:57.958Z,27.49
2018-06-21T14:11:29.887Z,27.65
2018-06-21T14:14:02.709Z,27.68
2018-06-21T14:16:35.429Z,27.70
2018-06-21T14:19:08.824Z,27.72
2018-06-21T14:21:40.296Z,27.55
2018-06-21T14:24:15.212Z,27.62
2018-06-21T14:26:46.694Z,27.52
2018-06-21T14:29:17.157Z,27.64
2018-06-21T14:31:48.086Z,27.73
2018-06-21T14:34:19.672Z,27.61
2018-06-21T14:36:50.921Z,27.62
2018-06-21T14:39:21.882Z,27.57
2018-06-21T14:41:52.637Z,27.48
2018-06-21T14:44:25.445Z,27.51
2018-06-21T14:46:57.320Z,27.52
2018-06-21T14:49:28.347Z,27.44
2018-06-21T14:52:00.124Z,27.49
2018-06-21T14:54:32.031Z,27.50
2018-06-21T14:57:04.432Z,27.44
2018-06-21T14:59:35.725Z,27.48
2018-06-21T15:02:08.156Z,27.51
2018-06-21T15:04:39.823Z,27.44
2018-06-21T15:07:11.018Z,27.44
2018-06-21T15:09:42.815Z,27.45
2018-06-21T15:12:15.221Z,27.18
2018-06-21T15:14:47.700Z,27.21
2018-06-21T15:17:19.071Z,27.13
2018-06-21T15:19:50.593Z,27.10
2018-06-21T15:22:22.534Z,27.13
2018-06-21T15:24:54.319Z,27.11
2018-06-21T15:27:25.265Z,27.07
2018-06-21T15:29:56.472Z,27.05
2018-06-21T15:32:27.701Z,27.12
2018-06-21T15:35:00.296Z,27.20
2018-06-21T15:37:31.455Z,27.05
2018-06-21T15:40:02.851Z,27.00
2018-06-21T15:42:34.864Z,27.06
2018-06-21T15:45:07.404Z,27.02
2018-06-21T15:47:39.258Z,27.12
2018-06-21T15:50:10.221Z,27.09
2018-06-21T15:52:41.853Z,27.04
2018-06-21T15:55:13.046Z,27.15
2018-06-21T15:57:45.013Z,27.05
2018-06-21T16:00:16.565Z,27.24
2018-06-21T16:02:49.201Z,27.03
2018-06-21T16:05:21.697Z,26.91
2018-06-21T16:07:53.469Z,26.94
2018-06-21T16:10:24.501Z,26.89
2018-06-21T16:12:55.604Z,26.87
2018-06-21T16:15:27.241Z,26.61
2018-06-21T16:17:58.400Z,26.51
2018-06-21T16:20:30.958Z,26.53
2018-06-21T16:23:04.033Z,26.61
2018-06-21T16:25:35.160Z,26.51
2018-06-21T16:28:06.742Z,26.47
2018-06-21T16:30:39.728Z,26.37
2018-06-21T16:33:12.135Z,26.39
2018-06-21T16:35:44.066Z,26.27
2018-06-21T16:38:16.110Z,26.34
2018-06-21T16:40:47.241Z,26.19
2018-06-21T16:43:19.512Z,26.22
2018-06-21T16:45:52.536Z,26.12
2018-06-21T16:48:24.669Z,26.08
2018-06-21T16:50:55.916Z,26.07
2018-06-21T16:53:27.117Z,25.91
2018-06-21T16:55:58.400Z,25.91
2018-06-21T16:58:30.857Z,25.88
2018-06-21T17:01:02.954Z,25.96
2018-06-21T17:03:34.084Z,26.04
2018-06-21T17:06:05.737Z,25.95
2018-06-21T17:08:38.247Z,25.88
2018-06-21T17:11:08.972Z,25.91
2018-06-21T17:13:40.180Z,25.97
2018-06-21T17:16:11.133Z,25.90
2018-06-21T17:18:42.722Z,25.86
2018-06-21T17:21:14.205Z,25.86
2018-06-21T17:23:46.997Z,25.92
2018-06-21T17:26:18.663Z,25.92
2018-06-21T17:28:50.454Z,25.93
2018-06-21T17:31:21.599Z,25.91
2018-06-21T17:33:53.446Z,25.84
2018-06-21T17:36:24.584Z,25.74
2018-06-21T17:38:56.899Z,25.58
2018-06-21T17:41:28.109Z,25.49
2018-06-21T17:44:00.917Z,25.49
2018-06-21T17:46:32.816Z,25.53
2018-06-21T17:49:06.328Z,25.58
2018-06-21T17:51:39.089Z,25.58
2018-06-21T17:54:17.621Z,25.47
2018-06-21T17:56:49.182Z,25.45
2018-06-21T17:59:20.718Z,25.55
2018-06-21T18:01:52.661Z,25.42
2018-06-21T18:04:24.175Z,25.43
2018-06-21T18:06:55.876Z,25.46
2018-06-21T18:09:28.862Z,25.42
2018-06-21T18:11:59.522Z,25.37
2018-06-21T18:14:32.390Z,25.39
2018-06-21T18:17:05.901Z,25.36
2018-06-21T18:19:36.739Z,25.35
2018-06-21T18:22:09.587Z,25.32
2018-06-21T18:24:41.139Z,25.29
2018-06-21T18:27:13.131Z,25.18
2018-06-21T18:29:44.925Z,25.13
2018-06-21T18:32:16.026Z,25.10
2018-06-21T18:34:48.049Z,25.09
2018-06-21T18:37:19.226Z,25.09
2018-06-21T18:39:50.287Z,25.04
2018-06-21T18:42:21.841Z,24.97
2018-06-21T18:44:56.606Z,25.20
2018-06-21T18:47:28.003Z,25.22
2018-06-21T18:50:00.130Z,25.30
2018-06-21T18:52:34.456Z,25.35
2018-06-21T18:55:07.860Z,25.38
2018-06-21T18:57:38.691Z,25.41
2018-06-21T19:00:11.111Z,25.43
2018-06-21T19:02:42.459Z,25.45
2018-06-21T19:05:13.469Z,25.43
2018-06-21T19:07:45.661Z,25.45
2018-06-21T19:10:21.954Z,25.43
2018-06-21T19:12:54.708Z,25.47
2018-06-21T19:15:26.267Z,25.48
2018-06-21T19:17:56.978Z,25.48
2018-06-21T19:20:28.020Z,25.33
2018-06-21T19:22:59.771Z,25.32
2018-06-21T19:25:35.075Z,25.37
2018-06-21T19:28:06.365Z,25.42
2018-06-21T19:30:37.053Z,25.33
2018-06-21T19:33:08.262Z,25.39
2018-06-21T19:35:40.314Z,25.11
2018-06-21T19:38:11.439Z,25.19
2018-06-21T19:40:44.752Z,25.09
2018-06-21T19:43:23.714Z,24.86
2018-06-21T19:45:57.033Z,24.78
2018-06-21T19:48:43.338Z,24.67
2018-06-21T19:51:25.186Z,24.85
2018-06-21T19:54:03.580Z,24.71
2018-06-21T19:56:37.537Z,24.62
2018-06-21T19:59:13.086Z,24.62
2018-06-21T20:01:48.015Z,24.59
2018-06-21T20:04:20.294Z,24.53
2018-06-21T20:06:51.669Z,24.49
2018-06-21T20:09:22.859Z,24.39
2018-06-21T20:11:55.590Z,24.39
2018-06-21T20:14:27.610Z,24.36
2018-06-21T20:17:01.377Z,24.34
2018-06-21T20:20:36.361Z,24.43
2018-06-21T20:23:09.146Z,24.34
2018-06-21T20:25:40.886Z,24.32
2018-06-21T20:28:15.088Z,24.23
2018-06-21T20:30:52.283Z,24.17
2018-06-21T20:33:26.020Z,24.15
2018-06-21T20:36:00.171Z,24.16
2018-06-21T20:38:32.047Z,24.16
2018-06-21T20:41:04.135Z,24.12
2018-06-21T20:43:36.457Z,24.02
2018-06-21T20:46:11.936Z,23.89
2018-06-21T20:48:43.907Z,23.82
2018-06-21T20:51:17.881Z,23.82
2018-06-21T20:53:49.134Z,23.76
2018-06-21T20:56:22.185Z,23.72
2018-06-21T20:58:54.598Z,23.68
2018-06-21T21:01:28.003Z,23.58
2018-06-21T21:04:00.264Z,23.55
2018-06-21T21:06:33.229Z,23.53
2018-06-21T21:09:08.655Z,23.51
2018-06-21T21:11:42.936Z,23.46
2018-06-21T21:14:14.670Z,23.42
2018-06-21T21:16:51.622Z,23.39
2018-06-21T21:19:24.844Z,23.35
2018-06-21T21:22:00.222Z,23.34
2018-06-21T21:24:33.197Z,23.35
2018-06-21T21:27:07.114Z,23.50
2018-06-21T21:29:39.856Z,23.43
2018-06-21T21:32:14.876Z,23.41
2018-06-21T21:34:50.258Z,23.31
2018-06-21T21:37:26.254Z,23.22
2018-06-21T21:40:03.982Z,23.20
2018-06-21T21:42:38.694Z,23.21
2018-06-21T21:45:12.516Z,23.23
2018-06-21T21:47:49.218Z,23.24
2018-06-21T21:50:23.867Z,23.23
2018-06-21T21:52:57.857Z,23.22
2018-06-21T21:55:31.167Z,23.19
2018-06-21T21:58:08.440Z,23.10
2018-06-21T22:00:51.658Z,23.05
2018-06-21T22:03:24.457Z,23.02
2018-06-21T22:05:57.470Z,22.98
2018-06-21T22:08:35.698Z,22.90
2018-06-21T22:11:12.533Z,22.85
2018-06-21T22:13:47.964Z,22.88
2018-06-21T22:16:25.384Z,22.83
2018-06-21T22:19:00.294Z,22.80
2018-06-21T22:21:35.648Z,22.79
2018-06-21T22:24:09.591Z,22.80
2018-06-21T22:26:43.395Z,22.78
2018-06-21T22:29:16.234Z,22.71
2018-06-21T22:31:50.862Z,22.65
2018-06-21T22:34:28.153Z,22.53
2018-06-21T22:37:01.227Z,22.60
2018-06-21T22:39:37.958Z,22.65
2018-06-21T22:42:13.099Z,22.66
2018-06-21T22:44:48.239Z,22.62
2018-06-21T22:47:26.332Z,22.62
2018-06-21T22:50:01.270Z,22.54
2018-06-21T22:52:37.686Z,22.56
2018-06-21T22:55:13.708Z,22.50
2018-06-21T22:57:47.755Z,22.58
2018-06-21T23:00:23.154Z,22.44
2018-06-21T23:02:58.542Z,22.38
2018-06-21T23:05:34.261Z,22.31
2018-06-21T23:08:09.798Z,22.37
2018-06-21T23:10:46.016Z,22.29
2018-06-21T23:13:24.904Z,22.27
2018-06-21T23:16:03.384Z,22.24
2018-06-21T23:18:54.495Z,22.30
2018-06-21T23:21:29.388Z,22.23
2018-06-21T23:24:04.414Z,22.11
2018-06-21T23:26:38.715Z,22.17
2018-06-21T23:29:18.280Z,22.17
2018-06-21T23:31:52.596Z,22.27
2018-06-21T23:34:29.738Z,22.23
2018-06-21T23:37:05.366Z,22.21
2018-06-21T23:39:40.198Z,22.20
2018-06-21T23:42:15.262Z,22.16
2018-06-21T23:44:59.463Z,22.13
2018-06-21T23:47:37.741Z,22.14
2018-06-21T23:50:15.010Z,22.13
2018-06-21T23:52:49.515Z,22.04
2018-06-21T23:55:22.366Z,22.10
2018-06-21T23:57:57.172Z,22.04
